sensor_id;sensor_type;location;lat;lon;timestamp;P1;durP1;ratioP1;P2;durP2;ratioP2
51594;SDS011;37677;53.254;6.594;2024-02-26T00:00:57;17.20;;;15.40;;
51594;SDS011;37677;53.254;6.594;2024-02-26T00:03:23;17.75;;;15.63;;
51594;SDS011;37677;53.254;6.594;2024-02-26T00:06:02;18.08;;;14.90;;
51594;SDS011;37677;53.254;6.594;2024-02-26T00:08:30;17.23;;;15.40;;
51594;SDS011;37677;53.254;6.594;2024-02-26T00:10:56;18.17;;;16.27;;
51594;SDS011;37677;53.254;6.594;2024-02-26T00:16:03;20.87;;;14.63;;
51594;SDS011;37677;53.254;6.594;2024-02-26T00:18:33;19.85;;;15.32;;
51594;SDS011;37677;53.254;6.594;2024-02-26T00:21:05;17.00;;;14.68;;
51594;SDS011;37677;53.254;6.594;2024-02-26T00:23:31;17.63;;;14.07;;
51594;SDS011;37677;53.254;6.594;2024-02-26T00:26:11;14.88;;;12.85;;
51594;SDS011;37677;53.254;6.594;2024-02-26T00:28:37;14.45;;;12.73;;
51594;SDS011;37677;53.254;6.594;2024-02-26T00:31:03;16.58;;;12.55;;
51594;SDS011;37677;53.254;6.594;2024-02-26T00:33:39;15.00;;;13.40;;
51594;SDS011;37677;53.254;6.594;2024-02-26T00:36:15;14.35;;;12.82;;
51594;SDS011;37677;53.254;6.594;2024-02-26T00:38:45;15.38;;;13.32;;
51594;SDS011;37677;53.254;6.594;2024-02-26T00:41:18;13.57;;;12.18;;
51594;SDS011;37677;53.254;6.594;2024-02-26T00:43:44;14.10;;;12.07;;
51594;SDS011;37677;53.254;6.594;2024-02-26T00:46:14;15.07;;;12.30;;
51594;SDS011;37677;53.254;6.594;2024-02-26T00:48:42;13.50;;;12.10;;
51594;SDS011;37677;53.254;6.594;2024-02-26T00:51:24;14.13;;;12.77;;
51594;SDS011;37677;53.254;6.594;2024-02-26T00:53:54;15.23;;;12.73;;
51594;SDS011;37677;53.254;6.594;2024-02-26T00:56:21;16.00;;;12.63;;
51594;SDS011;37677;53.254;6.594;2024-02-26T00:58:51;13.23;;;11.85;;
51594;SDS011;37677;53.254;6.594;2024-02-26T01:01:28;15.70;;;12.18;;
51594;SDS011;37677;53.254;6.594;2024-02-26T01:03:55;13.35;;;12.07;;
51594;SDS011;37677;53.254;6.594;2024-02-26T01:06:21;14.18;;;12.70;;
51594;SDS011;37677;53.254;6.594;2024-02-26T01:08:54;12.30;;;11.10;;
51594;SDS011;37677;53.254;6.594;2024-02-26T01:11:24;15.43;;;11.82;;
51594;SDS011;37677;53.254;6.594;2024-02-26T01:13:52;11.82;;;10.63;;
51594;SDS011;37677;53.254;6.594;2024-02-26T01:16:25;12.75;;;11.35;;
51594;SDS011;37677;53.254;6.594;2024-02-26T01:18:57;12.43;;;10.95;;
51594;SDS011;37677;53.254;6.594;2024-02-26T01:21:24;11.18;;;10.02;;
51594;SDS011;37677;53.254;6.594;2024-02-26T01:23:55;11.38;;;10.27;;
51594;SDS011;37677;53.254;6.594;2024-02-26T01:26:21;12.73;;;10.07;;
51594;SDS011;37677;53.254;6.594;2024-02-26T01:28:49;11.80;;;10.52;;
51594;SDS011;37677;53.254;6.594;2024-02-26T01:31:15;11.13;;;9.73;;
51594;SDS011;37677;53.254;6.594;2024-02-26T01:33:44;9.65;;;8.75;;
51594;SDS011;37677;53.254;6.594;2024-02-26T01:36:10;10.35;;;8.80;;
51594;SDS011;37677;53.254;6.594;2024-02-26T01:38:40;9.30;;;8.40;;
51594;SDS011;37677;53.254;6.594;2024-02-26T01:43:44;7.65;;;6.95;;
51594;SDS011;37677;53.254;6.594;2024-02-26T01:48:55;8.25;;;7.25;;
51594;SDS011;37677;53.254;6.594;2024-02-26T01:51:22;7.70;;;7.00;;
51594;SDS011;37677;53.254;6.594;2024-02-26T01:53:50;8.38;;;7.57;;
51594;SDS011;37677;53.254;6.594;2024-02-26T01:56:18;7.20;;;6.50;;
51594;SDS011;37677;53.254;6.594;2024-02-26T01:59:17;7.07;;;6.45;;
51594;SDS011;37677;53.254;6.594;2024-02-26T02:01:47;7.97;;;7.18;;
51594;SDS011;37677;53.254;6.594;2024-02-26T02:04:14;7.70;;;6.97;;
51594;SDS011;37677;53.254;6.594;2024-02-26T02:06:41;8.63;;;7.68;;
51594;SDS011;37677;53.254;6.594;2024-02-26T02:09:14;8.75;;;7.85;;
51594;SDS011;37677;53.254;6.594;2024-02-26T02:11:43;8.82;;;7.88;;
51594;SDS011;37677;53.254;6.594;2024-02-26T02:17:04;12.68;;;9.05;;
51594;SDS011;37677;53.254;6.594;2024-02-26T02:19:31;9.35;;;7.90;;
51594;SDS011;37677;53.254;6.594;2024-02-26T02:25:03;13.40;;;8.80;;
51594;SDS011;37677;53.254;6.594;2024-02-26T02:27:49;11.05;;;9.68;;
51594;SDS011;37677;53.254;6.594;2024-02-26T02:30:24;10.02;;;9.02;;
51594;SDS011;37677;53.254;6.594;2024-02-26T02:32:51;9.45;;;8.57;;
51594;SDS011;37677;53.254;6.594;2024-02-26T02:35:17;8.60;;;7.70;;
51594;SDS011;37677;53.254;6.594;2024-02-26T02:37:44;11.20;;;8.32;;
51594;SDS011;37677;53.254;6.594;2024-02-26T02:40:13;9.43;;;8.45;;
51594;SDS011;37677;53.254;6.594;2024-02-26T02:45:13;10.25;;;6.97;;
51594;SDS011;37677;53.254;6.594;2024-02-26T02:47:43;8.05;;;6.95;;
51594;SDS011;37677;53.254;6.594;2024-02-26T02:50:09;8.15;;;7.25;;
51594;SDS011;37677;53.254;6.594;2024-02-26T02:52:35;7.63;;;6.93;;
51594;SDS011;37677;53.254;6.594;2024-02-26T02:55:03;8.48;;;7.68;;
51594;SDS011;37677;53.254;6.594;2024-02-26T02:57:34;7.38;;;6.57;;
51594;SDS011;37677;53.254;6.594;2024-02-26T03:00:14;6.38;;;5.78;;
51594;SDS011;37677;53.254;6.594;2024-02-26T03:02:41;7.75;;;6.05;;
51594;SDS011;37677;53.254;6.594;2024-02-26T03:05:08;6.22;;;5.50;;
51594;SDS011;37677;53.254;6.594;2024-02-26T03:07:44;7.85;;;6.45;;
51594;SDS011;37677;53.254;6.594;2024-02-26T03:10:25;7.00;;;6.10;;
51594;SDS011;37677;53.254;6.594;2024-02-26T03:12:53;7.13;;;5.85;;
51594;SDS011;37677;53.254;6.594;2024-02-26T03:15:24;6.28;;;5.68;;
51594;SDS011;37677;53.254;6.594;2024-02-26T03:17:52;6.35;;;5.18;;
51594;SDS011;37677;53.254;6.594;2024-02-26T03:20:41;10.40;;;6.15;;
51594;SDS011;37677;53.254;6.594;2024-02-26T03:23:08;9.48;;;5.78;;
51594;SDS011;37677;53.254;6.594;2024-02-26T03:28:17;8.35;;;5.85;;
51594;SDS011;37677;53.254;6.594;2024-02-26T03:30:47;6.05;;;5.53;;
51594;SDS011;37677;53.254;6.594;2024-02-26T03:33:17;6.45;;;5.85;;
51594;SDS011;37677;53.254;6.594;2024-02-26T03:36:06;5.82;;;5.22;;
51594;SDS011;37677;53.254;6.594;2024-02-26T03:38:49;6.72;;;5.10;;
51594;SDS011;37677;53.254;6.594;2024-02-26T03:41:15;7.53;;;6.35;;
51594;SDS011;37677;53.254;6.594;2024-02-26T03:43:48;6.63;;;5.50;;
51594;SDS011;37677;53.254;6.594;2024-02-26T03:46:28;7.68;;;5.68;;
51594;SDS011;37677;53.254;6.594;2024-02-26T03:48:57;8.73;;;4.70;;
51594;SDS011;37677;53.254;6.594;2024-02-26T03:51:40;8.15;;;5.13;;
51594;SDS011;37677;53.254;6.594;2024-02-26T03:57:57;9.68;;;5.28;;
51594;SDS011;37677;53.254;6.594;2024-02-26T04:00:26;8.65;;;6.10;;
51594;SDS011;37677;53.254;6.594;2024-02-26T04:03:00;8.63;;;5.70;;
51594;SDS011;37677;53.254;6.594;2024-02-26T04:08:34;9.20;;;5.20;;
51594;SDS011;37677;53.254;6.594;2024-02-26T04:11:11;9.80;;;5.38;;
51594;SDS011;37677;53.254;6.594;2024-02-26T04:13:41;6.57;;;4.97;;
51594;SDS011;37677;53.254;6.594;2024-02-26T04:16:33;5.30;;;4.80;;
51594;SDS011;37677;53.254;6.594;2024-02-26T04:21:58;5.28;;;4.70;;
51594;SDS011;37677;53.254;6.594;2024-02-26T04:24:52;6.28;;;5.10;;
51594;SDS011;37677;53.254;6.594;2024-02-26T04:27:41;8.23;;;4.70;;
51594;SDS011;37677;53.254;6.594;2024-02-26T04:30:13;10.40;;;6.15;;
51594;SDS011;37677;53.254;6.594;2024-02-26T04:32:57;5.60;;;4.72;;
51594;SDS011;37677;53.254;6.594;2024-02-26T04:35:34;5.32;;;4.75;;
51594;SDS011;37677;53.254;6.594;2024-02-26T04:38:00;6.43;;;5.23;;
51594;SDS011;37677;53.254;6.594;2024-02-26T04:40:31;9.60;;;5.38;;
51594;SDS011;37677;53.254;6.594;2024-02-26T04:46:10;9.35;;;5.20;;
51594;SDS011;37677;53.254;6.594;2024-02-26T04:49:19;8.13;;;4.65;;
51594;SDS011;37677;53.254;6.594;2024-02-26T04:52:04;8.20;;;5.18;;
51594;SDS011;37677;53.254;6.594;2024-02-26T04:54:37;8.38;;;4.22;;
51594;SDS011;37677;53.254;6.594;2024-02-26T04:57:14;8.68;;;4.00;;
51594;SDS011;37677;53.254;6.594;2024-02-26T04:59:48;4.93;;;3.78;;
51594;SDS011;37677;53.254;6.594;2024-02-26T05:02:27;6.25;;;4.15;;
51594;SDS011;37677;53.254;6.594;2024-02-26T05:05:09;8.63;;;4.78;;
51594;SDS011;37677;53.254;6.594;2024-02-26T05:07:43;8.02;;;4.60;;
51594;SDS011;37677;53.254;6.594;2024-02-26T05:10:14;6.20;;;4.60;;
51594;SDS011;37677;53.254;6.594;2024-02-26T05:13:07;7.50;;;4.53;;
51594;SDS011;37677;53.254;6.594;2024-02-26T05:15:39;6.10;;;4.20;;
51594;SDS011;37677;53.254;6.594;2024-02-26T05:18:09;4.50;;;3.95;;
51594;SDS011;37677;53.254;6.594;2024-02-26T05:20:41;5.00;;;3.40;;
51594;SDS011;37677;53.254;6.594;2024-02-26T05:23:26;4.35;;;3.70;;
51594;SDS011;37677;53.254;6.594;2024-02-26T05:25:57;5.43;;;3.35;;
51594;SDS011;37677;53.254;6.594;2024-02-26T05:28:37;6.85;;;4.32;;
51594;SDS011;37677;53.254;6.594;2024-02-26T05:31:13;3.67;;;3.38;;
51594;SDS011;37677;53.254;6.594;2024-02-26T05:34:19;4.00;;;3.47;;
51594;SDS011;37677;53.254;6.594;2024-02-26T05:36:55;3.80;;;3.40;;
51594;SDS011;37677;53.254;6.594;2024-02-26T05:39:45;4.95;;;3.47;;
51594;SDS011;37677;53.254;6.594;2024-02-26T05:42:30;3.92;;;3.20;;
51594;SDS011;37677;53.254;6.594;2024-02-26T05:45:02;5.22;;;3.38;;
51594;SDS011;37677;53.254;6.594;2024-02-26T05:50:27;3.47;;;2.60;;
51594;SDS011;37677;53.254;6.594;2024-02-26T05:53:01;2.80;;;2.60;;
51594;SDS011;37677;53.254;6.594;2024-02-26T05:55:35;3.63;;;2.92;;
51594;SDS011;37677;53.254;6.594;2024-02-26T05:58:01;5.90;;;3.33;;
51594;SDS011;37677;53.254;6.594;2024-02-26T06:00:37;4.25;;;3.00;;
51594;SDS011;37677;53.254;6.594;2024-02-26T06:03:12;3.53;;;2.85;;
51594;SDS011;37677;53.254;6.594;2024-02-26T06:05:47;3.85;;;2.88;;
51594;SDS011;37677;53.254;6.594;2024-02-26T06:11:38;4.47;;;3.00;;
51594;SDS011;37677;53.254;6.594;2024-02-26T06:17:35;3.10;;;2.67;;
51594;SDS011;37677;53.254;6.594;2024-02-26T06:20:40;3.83;;;2.72;;
51594;SDS011;37677;53.254;6.594;2024-02-26T06:23:34;3.47;;;2.95;;
51594;SDS011;37677;53.254;6.594;2024-02-26T06:26:14;3.45;;;3.05;;
51594;SDS011;37677;53.254;6.594;2024-02-26T06:28:44;6.38;;;3.33;;
51594;SDS011;37677;53.254;6.594;2024-02-26T06:34:28;5.15;;;3.03;;
51594;SDS011;37677;53.254;6.594;2024-02-26T06:37:00;4.45;;;2.90;;
51594;SDS011;37677;53.254;6.594;2024-02-26T06:39:38;4.03;;;2.80;;
51594;SDS011;37677;53.254;6.594;2024-02-26T06:42:14;3.83;;;2.65;;
51594;SDS011;37677;53.254;6.594;2024-02-26T06:44:44;2.95;;;2.55;;
51594;SDS011;37677;53.254;6.594;2024-02-26T06:47:11;3.97;;;2.72;;
51594;SDS011;37677;53.254;6.594;2024-02-26T06:49:44;5.10;;;2.30;;
51594;SDS011;37677;53.254;6.594;2024-02-26T06:53:01;3.67;;;2.30;;
51594;SDS011;37677;53.254;6.594;2024-02-26T06:58:32;3.78;;;2.53;;
51594;SDS011;37677;53.254;6.594;2024-02-26T07:01:13;4.68;;;3.05;;
51594;SDS011;37677;53.254;6.594;2024-02-26T07:06:27;8.35;;;3.58;;
51594;SDS011;37677;53.254;6.594;2024-02-26T07:08:53;4.90;;;3.00;;
51594;SDS011;37677;53.254;6.594;2024-02-26T07:11:19;4.63;;;3.13;;
51594;SDS011;37677;53.254;6.594;2024-02-26T07:13:55;4.03;;;3.28;;
51594;SDS011;37677;53.254;6.594;2024-02-26T07:17:05;5.00;;;3.08;;
51594;SDS011;37677;53.254;6.594;2024-02-26T07:19:51;3.25;;;2.95;;
51594;SDS011;37677;53.254;6.594;2024-02-26T07:22:18;4.43;;;3.17;;
51594;SDS011;37677;53.254;6.594;2024-02-26T07:24:47;3.10;;;2.65;;
51594;SDS011;37677;53.254;6.594;2024-02-26T07:27:13;4.10;;;2.50;;
51594;SDS011;37677;53.254;6.594;2024-02-26T07:29:41;2.95;;;2.65;;
51594;SDS011;37677;53.254;6.594;2024-02-26T07:32:09;4.57;;;3.08;;
51594;SDS011;37677;53.254;6.594;2024-02-26T07:34:35;4.15;;;2.75;;
51594;SDS011;37677;53.254;6.594;2024-02-26T07:37:04;3.83;;;2.90;;
51594;SDS011;37677;53.254;6.594;2024-02-26T07:39:34;3.45;;;2.25;;
51594;SDS011;37677;53.254;6.594;2024-02-26T07:42:02;3.28;;;2.20;;
51594;SDS011;37677;53.254;6.594;2024-02-26T07:44:30;2.63;;;2.22;;
51594;SDS011;37677;53.254;6.594;2024-02-26T07:46:58;2.83;;;1.90;;
51594;SDS011;37677;53.254;6.594;2024-02-26T07:49:25;2.17;;;1.88;;
51594;SDS011;37677;53.254;6.594;2024-02-26T07:51:51;4.47;;;1.83;;
51594;SDS011;37677;53.254;6.594;2024-02-26T07:54:20;5.65;;;1.85;;
51594;SDS011;37677;53.254;6.594;2024-02-26T07:56:55;2.80;;;2.05;;
51594;SDS011;37677;53.254;6.594;2024-02-26T07:59:41;2.80;;;1.80;;
51594;SDS011;37677;53.254;6.594;2024-02-26T08:02:18;4.00;;;1.80;;
51594;SDS011;37677;53.254;6.594;2024-02-26T08:04:47;6.97;;;1.80;;
51594;SDS011;37677;53.254;6.594;2024-02-26T08:07:14;4.05;;;1.80;;
51594;SDS011;37677;53.254;6.594;2024-02-26T08:09:42;3.60;;;2.03;;
51594;SDS011;37677;53.254;6.594;2024-02-26T08:12:17;2.67;;;1.90;;
51594;SDS011;37677;53.254;6.594;2024-02-26T08:14:46;4.40;;;1.85;;
51594;SDS011;37677;53.254;6.594;2024-02-26T08:20:09;2.75;;;1.77;;
51594;SDS011;37677;53.254;6.594;2024-02-26T08:22:47;3.60;;;1.63;;
51594;SDS011;37677;53.254;6.594;2024-02-26T08:25:16;5.30;;;1.83;;
51594;SDS011;37677;53.254;6.594;2024-02-26T08:27:43;2.20;;;1.30;;
51594;SDS011;37677;53.254;6.594;2024-02-26T08:32:45;2.33;;;1.23;;
51594;SDS011;37677;53.254;6.594;2024-02-26T08:35:14;2.40;;;1.20;;
51594;SDS011;37677;53.254;6.594;2024-02-26T08:40:29;3.55;;;1.48;;
51594;SDS011;37677;53.254;6.594;2024-02-26T08:42:55;1.90;;;1.70;;
51594;SDS011;37677;53.254;6.594;2024-02-26T08:45:22;2.80;;;1.60;;
51594;SDS011;37677;53.254;6.594;2024-02-26T08:47:50;2.03;;;1.40;;
51594;SDS011;37677;53.254;6.594;2024-02-26T08:50:16;2.08;;;1.88;;
51594;SDS011;37677;53.254;6.594;2024-02-26T08:52:48;2.28;;;2.08;;
51594;SDS011;37677;53.254;6.594;2024-02-26T08:55:18;3.65;;;2.25;;
51594;SDS011;37677;53.254;6.594;2024-02-26T08:57:44;3.85;;;2.28;;
51594;SDS011;37677;53.254;6.594;2024-02-26T09:00:10;7.00;;;2.22;;
51594;SDS011;37677;53.254;6.594;2024-02-26T09:02:37;5.35;;;2.28;;
51594;SDS011;37677;53.254;6.594;2024-02-26T09:05:08;3.60;;;1.85;;
51594;SDS011;37677;53.254;6.594;2024-02-26T09:07:35;2.10;;;1.80;;
51594;SDS011;37677;53.254;6.594;2024-02-26T09:10:01;3.53;;;1.92;;
51594;SDS011;37677;53.254;6.594;2024-02-26T09:12:27;6.53;;;1.73;;
51594;SDS011;37677;53.254;6.594;2024-02-26T09:14:53;2.92;;;1.90;;
51594;SDS011;37677;53.254;6.594;2024-02-26T09:17:28;3.33;;;2.20;;
51594;SDS011;37677;53.254;6.594;2024-02-26T09:19:54;3.95;;;2.35;;
51594;SDS011;37677;53.254;6.594;2024-02-26T09:22:20;4.47;;;2.00;;
51594;SDS011;37677;53.254;6.594;2024-02-26T09:24:47;3.28;;;2.40;;
51594;SDS011;37677;53.254;6.594;2024-02-26T09:27:16;4.53;;;2.78;;
51594;SDS011;37677;53.254;6.594;2024-02-26T09:29:42;3.60;;;2.47;;
51594;SDS011;37677;53.254;6.594;2024-02-26T09:32:08;4.82;;;2.60;;
51594;SDS011;37677;53.254;6.594;2024-02-26T09:34:34;3.63;;;2.53;;
51594;SDS011;37677;53.254;6.594;2024-02-26T09:37:01;3.45;;;2.65;;
51594;SDS011;37677;53.254;6.594;2024-02-26T09:39:27;5.10;;;2.97;;
51594;SDS011;37677;53.254;6.594;2024-02-26T09:41:56;3.45;;;2.85;;
51594;SDS011;37677;53.254;6.594;2024-02-26T09:44:24;3.55;;;2.95;;
51594;SDS011;37677;53.254;6.594;2024-02-26T09:47:02;4.85;;;2.90;;
51594;SDS011;37677;53.254;6.594;2024-02-26T09:49:28;3.13;;;2.70;;
51594;SDS011;37677;53.254;6.594;2024-02-26T09:51:56;3.78;;;2.50;;
51594;SDS011;37677;53.254;6.594;2024-02-26T09:54:23;4.78;;;2.67;;
51594;SDS011;37677;53.254;6.594;2024-02-26T09:56:51;5.53;;;2.30;;
51594;SDS011;37677;53.254;6.594;2024-02-26T10:01:48;3.65;;;2.13;;
51594;SDS011;37677;53.254;6.594;2024-02-26T10:04:14;3.22;;;2.63;;
51594;SDS011;37677;53.254;6.594;2024-02-26T10:06:40;2.55;;;1.90;;
51594;SDS011;37677;53.254;6.594;2024-02-26T10:09:09;4.35;;;1.90;;
51594;SDS011;37677;53.254;6.594;2024-02-26T10:11:36;8.52;;;2.13;;
51594;SDS011;37677;53.254;6.594;2024-02-26T10:14:03;3.88;;;1.80;;
51594;SDS011;37677;53.254;6.594;2024-02-26T10:16:29;8.23;;;2.17;;
51594;SDS011;37677;53.254;6.594;2024-02-26T10:18:56;3.28;;;2.10;;
51594;SDS011;37677;53.254;6.594;2024-02-26T10:21:24;3.97;;;1.42;;
51594;SDS011;37677;53.254;6.594;2024-02-26T10:23:50;4.03;;;1.90;;
51594;SDS011;37677;53.254;6.594;2024-02-26T10:26:16;2.90;;;1.38;;
51594;SDS011;37677;53.254;6.594;2024-02-26T10:28:45;3.33;;;1.63;;
51594;SDS011;37677;53.254;6.594;2024-02-26T10:31:13;3.00;;;1.90;;
51594;SDS011;37677;53.254;6.594;2024-02-26T10:33:40;4.90;;;2.17;;
51594;SDS011;37677;53.254;6.594;2024-02-26T10:36:07;5.15;;;1.85;;
51594;SDS011;37677;53.254;6.594;2024-02-26T10:38:33;2.20;;;1.77;;
51594;SDS011;37677;53.254;6.594;2024-02-26T10:41:02;2.13;;;1.42;;
51594;SDS011;37677;53.254;6.594;2024-02-26T10:43:28;3.67;;;1.88;;
51594;SDS011;37677;53.254;6.594;2024-02-26T10:45:55;4.00;;;1.83;;
51594;SDS011;37677;53.254;6.594;2024-02-26T10:48:21;2.20;;;1.60;;
51594;SDS011;37677;53.254;6.594;2024-02-26T10:50:47;3.08;;;1.50;;
51594;SDS011;37677;53.254;6.594;2024-02-26T10:53:26;3.55;;;2.00;;
51594;SDS011;37677;53.254;6.594;2024-02-26T10:55:56;3.60;;;2.00;;
51594;SDS011;37677;53.254;6.594;2024-02-26T10:58:23;3.75;;;2.20;;
51594;SDS011;37677;53.254;6.594;2024-02-26T11:00:50;2.15;;;1.88;;
51594;SDS011;37677;53.254;6.594;2024-02-26T11:03:18;3.38;;;2.03;;
51594;SDS011;37677;53.254;6.594;2024-02-26T11:05:49;2.38;;;1.92;;
51594;SDS011;37677;53.254;6.594;2024-02-26T11:08:21;3.45;;;2.30;;
51594;SDS011;37677;53.254;6.594;2024-02-26T11:10:50;4.75;;;2.58;;
51594;SDS011;37677;53.254;6.594;2024-02-26T11:13:17;3.70;;;2.28;;
51594;SDS011;37677;53.254;6.594;2024-02-26T11:15:44;2.90;;;2.22;;
51594;SDS011;37677;53.254;6.594;2024-02-26T11:18:14;3.35;;;2.55;;
51594;SDS011;37677;53.254;6.594;2024-02-26T11:20:48;3.90;;;3.10;;
51594;SDS011;37677;53.254;6.594;2024-02-26T11:23:15;3.72;;;2.88;;
51594;SDS011;37677;53.254;6.594;2024-02-26T11:25:45;3.42;;;3.05;;
51594;SDS011;37677;53.254;6.594;2024-02-26T11:28:15;3.78;;;2.63;;
51594;SDS011;37677;53.254;6.594;2024-02-26T11:30:44;5.72;;;2.50;;
51594;SDS011;37677;53.254;6.594;2024-02-26T11:33:12;5.97;;;3.15;;
51594;SDS011;37677;53.254;6.594;2024-02-26T11:35:40;4.45;;;3.67;;
51594;SDS011;37677;53.254;6.594;2024-02-26T11:38:06;5.78;;;3.25;;
51594;SDS011;37677;53.254;6.594;2024-02-26T11:40:38;5.00;;;2.92;;
51594;SDS011;37677;53.254;6.594;2024-02-26T11:43:06;4.63;;;3.28;;
51594;SDS011;37677;53.254;6.594;2024-02-26T11:48:13;4.78;;;3.50;;
51594;SDS011;37677;53.254;6.594;2024-02-26T11:50:41;5.47;;;3.92;;
51594;SDS011;37677;53.254;6.594;2024-02-26T11:55:47;6.50;;;4.13;;
51594;SDS011;37677;53.254;6.594;2024-02-26T11:58:14;6.32;;;4.72;;
51594;SDS011;37677;53.254;6.594;2024-02-26T12:00:41;6.13;;;4.20;;
51594;SDS011;37677;53.254;6.594;2024-02-26T12:03:15;7.40;;;4.40;;
51594;SDS011;37677;53.254;6.594;2024-02-26T12:05:41;7.38;;;4.68;;
51594;SDS011;37677;53.254;6.594;2024-02-26T12:08:07;7.07;;;5.20;;
51594;SDS011;37677;53.254;6.594;2024-02-26T12:13:15;10.05;;;5.13;;
51594;SDS011;37677;53.254;6.594;2024-02-26T12:15:45;9.77;;;5.30;;
51594;SDS011;37677;53.254;6.594;2024-02-26T12:18:17;8.50;;;4.53;;
51594;SDS011;37677;53.254;6.594;2024-02-26T12:20:45;11.35;;;5.00;;
51594;SDS011;37677;53.254;6.594;2024-02-26T12:23:15;7.50;;;5.30;;
51594;SDS011;37677;53.254;6.594;2024-02-26T12:25:44;8.05;;;5.65;;
51594;SDS011;37677;53.254;6.594;2024-02-26T12:28:13;7.22;;;5.82;;
51594;SDS011;37677;53.254;6.594;2024-02-26T12:30:40;9.82;;;5.68;;
51594;SDS011;37677;53.254;6.594;2024-02-26T12:33:06;7.43;;;5.60;;
51594;SDS011;37677;53.254;6.594;2024-02-26T12:35:33;7.75;;;5.20;;
51594;SDS011;37677;53.254;6.594;2024-02-26T12:38:00;7.45;;;5.95;;
51594;SDS011;37677;53.254;6.594;2024-02-26T12:40:26;10.75;;;5.90;;
51594;SDS011;37677;53.254;6.594;2024-02-26T12:42:53;8.18;;;5.72;;
51594;SDS011;37677;53.254;6.594;2024-02-26T12:45:23;8.18;;;6.35;;
51594;SDS011;37677;53.254;6.594;2024-02-26T12:47:51;8.75;;;6.30;;
51594;SDS011;37677;53.254;6.594;2024-02-26T12:50:17;7.75;;;6.38;;
51594;SDS011;37677;53.254;6.594;2024-02-26T12:52:45;9.10;;;6.45;;
51594;SDS011;37677;53.254;6.594;2024-02-26T12:55:24;6.97;;;6.25;;
51594;SDS011;37677;53.254;6.594;2024-02-26T12:57:51;7.68;;;5.93;;
51594;SDS011;37677;53.254;6.594;2024-02-26T13:00:19;9.32;;;7.03;;
51594;SDS011;37677;53.254;6.594;2024-02-26T13:02:49;10.77;;;6.75;;
51594;SDS011;37677;53.254;6.594;2024-02-26T13:05:16;8.10;;;7.30;;
51594;SDS011;37677;53.254;6.594;2024-02-26T13:07:45;11.55;;;6.40;;
51594;SDS011;37677;53.254;6.594;2024-02-26T13:10:17;8.25;;;6.85;;
51594;SDS011;37677;53.254;6.594;2024-02-26T13:12:48;7.28;;;6.00;;
51594;SDS011;37677;53.254;6.594;2024-02-26T13:15:22;7.93;;;5.13;;
51594;SDS011;37677;53.254;6.594;2024-02-26T13:20:42;8.77;;;6.20;;
51594;SDS011;37677;53.254;6.594;2024-02-26T13:23:25;6.55;;;5.85;;
51594;SDS011;37677;53.254;6.594;2024-02-26T13:25:55;9.98;;;7.65;;
51594;SDS011;37677;53.254;6.594;2024-02-26T13:28:22;7.60;;;6.30;;
51594;SDS011;37677;53.254;6.594;2024-02-26T13:30:55;6.80;;;6.10;;
51594;SDS011;37677;53.254;6.594;2024-02-26T13:33:23;10.60;;;6.68;;
51594;SDS011;37677;53.254;6.594;2024-02-26T13:35:50;7.38;;;5.97;;
51594;SDS011;37677;53.254;6.594;2024-02-26T13:38:16;6.90;;;5.88;;
51594;SDS011;37677;53.254;6.594;2024-02-26T13:40:44;7.45;;;6.10;;
51594;SDS011;37677;53.254;6.594;2024-02-26T13:43:10;10.38;;;5.68;;
51594;SDS011;37677;53.254;6.594;2024-02-26T13:45:59;7.68;;;5.97;;
51594;SDS011;37677;53.254;6.594;2024-02-26T13:48:25;9.07;;;6.78;;
51594;SDS011;37677;53.254;6.594;2024-02-26T13:50:51;8.07;;;6.60;;
51594;SDS011;37677;53.254;6.594;2024-02-26T13:53:24;8.57;;;6.63;;
51594;SDS011;37677;53.254;6.594;2024-02-26T13:55:51;8.70;;;7.20;;
51594;SDS011;37677;53.254;6.594;2024-02-26T13:58:17;7.63;;;6.82;;
51594;SDS011;37677;53.254;6.594;2024-02-26T14:00:48;8.15;;;7.00;;
51594;SDS011;37677;53.254;6.594;2024-02-26T14:03:14;8.45;;;7.28;;
51594;SDS011;37677;53.254;6.594;2024-02-26T14:05:45;8.30;;;7.50;;
51594;SDS011;37677;53.254;6.594;2024-02-26T14:08:11;9.07;;;7.35;;
51594;SDS011;37677;53.254;6.594;2024-02-26T14:10:38;8.80;;;7.32;;
51594;SDS011;37677;53.254;6.594;2024-02-26T14:13:04;9.02;;;7.63;;
51594;SDS011;37677;53.254;6.594;2024-02-26T14:15:30;9.00;;;6.70;;
51594;SDS011;37677;53.254;6.594;2024-02-26T14:17:57;13.02;;;7.53;;
51594;SDS011;37677;53.254;6.594;2024-02-26T14:20:26;8.10;;;7.30;;
51594;SDS011;37677;53.254;6.594;2024-02-26T14:22:52;7.30;;;6.60;;
51594;SDS011;37677;53.254;6.594;2024-02-26T14:25:19;9.13;;;7.07;;
51594;SDS011;37677;53.254;6.594;2024-02-26T14:27:48;8.73;;;7.20;;
51594;SDS011;37677;53.254;6.594;2024-02-26T14:30:15;13.52;;;7.40;;
51594;SDS011;37677;53.254;6.594;2024-02-26T14:32:41;8.32;;;7.07;;
51594;SDS011;37677;53.254;6.594;2024-02-26T14:35:27;10.93;;;7.55;;
51594;SDS011;37677;53.254;6.594;2024-02-26T14:37:53;8.48;;;6.13;;
51594;SDS011;37677;53.254;6.594;2024-02-26T14:40:20;7.03;;;5.40;;
51594;SDS011;37677;53.254;6.594;2024-02-26T14:42:57;9.10;;;5.35;;
51594;SDS011;37677;53.254;6.594;2024-02-26T14:45:25;8.25;;;5.05;;
51594;SDS011;37677;53.254;6.594;2024-02-26T14:47:52;6.18;;;4.85;;
51594;SDS011;37677;53.254;6.594;2024-02-26T14:50:28;8.90;;;6.05;;
51594;SDS011;37677;53.254;6.594;2024-02-26T14:52:54;6.63;;;5.50;;
51594;SDS011;37677;53.254;6.594;2024-02-26T14:55:20;6.70;;;5.88;;
51594;SDS011;37677;53.254;6.594;2024-02-26T14:57:54;9.70;;;5.75;;
51594;SDS011;37677;53.254;6.594;2024-02-26T15:00:23;7.25;;;6.07;;
51594;SDS011;37677;53.254;6.594;2024-02-26T15:02:52;7.65;;;6.55;;
51594;SDS011;37677;53.254;6.594;2024-02-26T15:05:31;10.88;;;5.88;;
51594;SDS011;37677;53.254;6.594;2024-02-26T15:08:14;5.97;;;5.30;;
51594;SDS011;37677;53.254;6.594;2024-02-26T15:10:44;7.55;;;6.38;;
51594;SDS011;37677;53.254;6.594;2024-02-26T15:13:19;7.28;;;6.40;;
51594;SDS011;37677;53.254;6.594;2024-02-26T15:15:46;8.80;;;6.93;;
51594;SDS011;37677;53.254;6.594;2024-02-26T15:18:12;7.00;;;6.30;;
51594;SDS011;37677;53.254;6.594;2024-02-26T15:20:45;8.73;;;7.18;;
51594;SDS011;37677;53.254;6.594;2024-02-26T15:23:13;8.68;;;7.60;;
51594;SDS011;37677;53.254;6.594;2024-02-26T15:25:41;9.00;;;8.10;;
51594;SDS011;37677;53.254;6.594;2024-02-26T15:28:15;9.50;;;7.28;;
51594;SDS011;37677;53.254;6.594;2024-02-26T15:30:44;8.80;;;7.38;;
51594;SDS011;37677;53.254;6.594;2024-02-26T15:33:14;9.70;;;7.32;;
51594;SDS011;37677;53.254;6.594;2024-02-26T15:35:43;13.88;;;7.35;;
51594;SDS011;37677;53.254;6.594;2024-02-26T15:41:01;8.93;;;5.88;;
51594;SDS011;37677;53.254;6.594;2024-02-26T15:43:31;9.70;;;5.90;;
51594;SDS011;37677;53.254;6.594;2024-02-26T15:45:58;7.50;;;5.65;;
51594;SDS011;37677;53.254;6.594;2024-02-26T15:48:27;6.45;;;5.80;;
51594;SDS011;37677;53.254;6.594;2024-02-26T15:50:54;6.43;;;5.50;;
51594;SDS011;37677;53.254;6.594;2024-02-26T15:53:31;11.05;;;6.20;;
51594;SDS011;37677;53.254;6.594;2024-02-26T15:56:07;7.40;;;6.22;;
51594;SDS011;37677;53.254;6.594;2024-02-26T15:58:43;8.80;;;6.60;;
51594;SDS011;37677;53.254;6.594;2024-02-26T16:01:35;7.32;;;6.43;;
51594;SDS011;37677;53.254;6.594;2024-02-26T16:04:11;8.77;;;6.72;;
51594;SDS011;37677;53.254;6.594;2024-02-26T16:06:59;6.78;;;6.07;;
51594;SDS011;37677;53.254;6.594;2024-02-26T16:09:37;9.40;;;7.25;;
51594;SDS011;37677;53.254;6.594;2024-02-26T16:12:08;8.75;;;7.82;;
51594;SDS011;37677;53.254;6.594;2024-02-26T16:14:48;9.40;;;8.38;;
51594;SDS011;37677;53.254;6.594;2024-02-26T16:17:44;9.20;;;7.45;;
51594;SDS011;37677;53.254;6.594;2024-02-26T16:20:26;9.80;;;7.05;;
51594;SDS011;37677;53.254;6.594;2024-02-26T16:23:00;9.30;;;8.10;;